createdAt,value
2023-02-27T00:01:34.919Z,4.97
2023-02-27T00:04:01.538Z,7.93
2023-02-27T00:06:28.723Z,6.03
2023-02-27T00:08:55.128Z,7.72
2023-02-27T00:11:21.914Z,6.25
2023-02-27T00:13:48.271Z,5.00
2023-02-27T00:16:14.833Z,6.35
2023-02-27T00:18:41.255Z,6.50
2023-02-27T00:21:07.652Z,6.43
2023-02-27T00:23:34.025Z,4.05
2023-02-27T00:26:00.994Z,7.50
2023-02-27T00:28:28.148Z,6.00
2023-02-27T00:30:54.676Z,5.15
2023-02-27T00:33:21.164Z,12.13
2023-02-27T00:35:57.622Z,5.97
2023-02-27T00:38:24.364Z,7.88
2023-02-27T00:40:50.793Z,8.55
2023-02-27T00:43:17.202Z,9.43
2023-02-27T00:45:43.617Z,5.38
2023-02-27T00:48:10.124Z,7.97
2023-02-27T00:50:36.780Z,7.32
2023-02-27T00:53:03.256Z,6.70
2023-02-27T00:55:29.684Z,4.32
2023-02-27T00:57:56.168Z,7.55
2023-02-27T01:00:22.628Z,7.30
2023-02-27T01:02:49.093Z,6.03
2023-02-27T01:05:15.822Z,4.35
2023-02-27T01:07:42.348Z,6.05
2023-02-27T01:10:10.241Z,6.65
2023-02-27T01:12:36.618Z,7.40
2023-02-27T01:15:04.018Z,6.32
2023-02-27T01:17:30.415Z,9.63
2023-02-27T01:19:56.792Z,6.07
2023-02-27T01:22:23.191Z,5.55
2023-02-27T01:24:49.586Z,7.40
2023-02-27T01:27:16.170Z,6.93
2023-02-27T01:29:42.648Z,6.10
2023-02-27T01:32:09.258Z,6.57
2023-02-27T01:34:35.781Z,5.90
2023-02-27T01:37:02.754Z,7.65
2023-02-27T01:39:29.372Z,7.50
2023-02-27T01:41:55.994Z,5.07
2023-02-27T01:44:22.371Z,6.28
2023-02-27T01:46:48.725Z,5.80
2023-02-27T01:49:21.282Z,4.65
2023-02-27T01:51:55.022Z,5.32
2023-02-27T01:54:23.219Z,7.05
2023-02-27T01:56:50.426Z,8.02
2023-02-27T01:59:17.244Z,7.15
2023-02-27T02:01:44.053Z,6.50
2023-02-27T02:04:22.531Z,7.32
2023-02-27T02:06:51.581Z,8.57
2023-02-27T02:09:18.877Z,8.80
2023-02-27T02:11:45.270Z,6.93
2023-02-27T02:14:12.461Z,5.88
2023-02-27T02:17:00.196Z,8.13
2023-02-27T02:19:53.372Z,6.70
2023-02-27T02:22:37.337Z,6.20
2023-02-27T02:25:22.053Z,5.82
2023-02-27T02:27:59.754Z,4.97
2023-02-27T02:31:01.542Z,6.35
2023-02-27T02:33:36.165Z,7.03
2023-02-27T02:36:22.802Z,6.38
2023-02-27T02:38:56.371Z,5.60
2023-02-27T02:42:00.350Z,9.18
2023-02-27T02:44:58.249Z,9.02
2023-02-27T02:47:33.177Z,7.30
2023-02-27T02:50:11.157Z,9.38
2023-02-27T02:53:01.400Z,7.20
2023-02-27T02:55:44.656Z,7.25
2023-02-27T02:58:22.154Z,6.97
2023-02-27T03:00:56.900Z,9.77
2023-02-27T03:03:29.320Z,9.43
2023-02-27T03:08:49.533Z,8.48
2023-02-27T03:11:15.990Z,7.53
2023-02-27T03:13:48.998Z,7.57
2023-02-27T03:16:25.490Z,10.30
2023-02-27T03:19:11.688Z,7.75
2023-02-27T03:21:44.842Z,6.78
2023-02-27T03:24:16.985Z,5.35
2023-02-27T03:26:44.784Z,7.63
2023-02-27T03:29:16.017Z,6.55
2023-02-27T03:31:47.103Z,8.50
2023-02-27T03:34:19.160Z,7.65
2023-02-27T03:36:49.899Z,7.05
2023-02-27T03:39:23.829Z,9.32
2023-02-27T03:41:55.376Z,7.25
2023-02-27T03:44:52.317Z,6.63
2023-02-27T03:47:19.365Z,7.15
2023-02-27T03:49:45.832Z,6.72
2023-02-27T03:52:12.672Z,8.00
2023-02-27T03:54:51.676Z,8.38
2023-02-27T03:57:18.041Z,9.63
2023-02-27T03:59:44.768Z,6.82
2023-02-27T04:02:11.467Z,6.78
2023-02-27T04:04:38.614Z,9.32
2023-02-27T04:07:29.810Z,8.60
2023-02-27T04:10:16.889Z,8.38
2023-02-27T04:12:46.253Z,6.97
2023-02-27T04:15:54.668Z,6.68
2023-02-27T04:18:35.982Z,6.40
2023-02-27T04:21:08.442Z,9.60
2023-02-27T04:26:39.530Z,8.32
2023-02-27T04:29:17.075Z,13.37
2023-02-27T04:31:56.254Z,6.63
2023-02-27T04:34:29.360Z,6.47
2023-02-27T04:37:01.357Z,5.45
2023-02-27T04:39:32.153Z,8.48
2023-02-27T04:42:05.273Z,7.43
2023-02-27T04:44:33.787Z,6.00
2023-02-27T04:47:00.944Z,8.10
2023-02-27T04:49:36.560Z,9.77
2023-02-27T04:52:07.287Z,6.75
2023-02-27T04:54:46.717Z,7.95
2023-02-27T04:57:18.429Z,9.45
2023-02-27T04:59:48.952Z,8.80
2023-02-27T05:02:25.456Z,6.97
2023-02-27T05:04:55.700Z,9.52
2023-02-27T05:07:25.931Z,7.72
2023-02-27T05:09:55.755Z,7.18
2023-02-27T05:12:51.618Z,8.60
2023-02-27T05:15:24.638Z,7.80
2023-02-27T05:18:00.290Z,11.70
2023-02-27T05:20:33.513Z,8.93
2023-02-27T05:23:11.036Z,8.68
2023-02-27T05:25:43.361Z,9.70
2023-02-27T05:28:34.988Z,10.32
2023-02-27T05:31:07.313Z,10.85
2023-02-27T05:33:39.089Z,12.40
2023-02-27T05:36:07.862Z,9.82
2023-02-27T05:38:40.769Z,12.23
2023-02-27T05:41:12.922Z,12.60
2023-02-27T05:43:48.188Z,12.40
2023-02-27T05:46:19.960Z,14.23
2023-02-27T05:48:51.837Z,9.80
2023-02-27T05:51:19.677Z,13.27
2023-02-27T05:53:55.542Z,11.38
2023-02-27T05:56:23.605Z,13.65
2023-02-27T05:59:05.018Z,10.10
2023-02-27T06:01:32.061Z,8.52
2023-02-27T06:03:58.659Z,11.32
2023-02-27T06:06:25.336Z,8.13
2023-02-27T06:08:51.913Z,8.13
2023-02-27T06:11:18.347Z,9.63
2023-02-27T06:13:44.737Z,6.13
2023-02-27T06:16:13.202Z,10.05
2023-02-27T06:18:39.644Z,6.80
2023-02-27T06:21:06.576Z,9.57
2023-02-27T06:23:33.031Z,11.55
2023-02-27T06:25:59.447Z,8.10
2023-02-27T06:28:25.887Z,9.75
2023-02-27T06:30:57.065Z,10.27
2023-02-27T06:33:25.916Z,13.65
2023-02-27T06:35:52.676Z,9.98
2023-02-27T06:38:19.099Z,8.77
2023-02-27T06:40:45.516Z,13.10
2023-02-27T06:43:11.922Z,8.82
2023-02-27T06:45:38.940Z,11.35
2023-02-27T06:48:05.635Z,12.90
2023-02-27T06:50:32.045Z,10.43
2023-02-27T06:52:58.421Z,13.23
2023-02-27T06:55:25.698Z,12.35
2023-02-27T06:57:52.225Z,12.50
2023-02-27T07:00:19.025Z,13.40
2023-02-27T07:02:45.461Z,15.75
2023-02-27T07:05:12.143Z,13.10
2023-02-27T07:07:39.242Z,13.98
2023-02-27T07:10:08.426Z,11.65
2023-02-27T07:12:34.812Z,9.40
2023-02-27T07:15:01.235Z,10.00
2023-02-27T07:17:27.641Z,11.77
2023-02-27T07:19:54.537Z,12.07
2023-02-27T07:22:21.002Z,9.95
2023-02-27T07:24:47.368Z,14.27
2023-02-27T07:27:13.832Z,14.38
2023-02-27T07:29:40.237Z,10.48
2023-02-27T07:32:06.762Z,10.68
2023-02-27T07:34:33.157Z,11.95
2023-02-27T07:36:59.539Z,9.35
2023-02-27T07:39:25.965Z,17.00
2023-02-27T07:41:52.413Z,11.02
2023-02-27T07:44:18.970Z,10.27
2023-02-27T07:46:47.270Z,13.30
2023-02-27T07:49:14.035Z,11.32
2023-02-27T07:51:40.836Z,12.68
2023-02-27T07:54:07.207Z,11.82
2023-02-27T07:56:34.321Z,14.18
2023-02-27T07:59:00.794Z,10.02
2023-02-27T08:01:27.222Z,11.38
2023-02-27T08:03:53.688Z,10.77
2023-02-27T08:06:20.061Z,12.80
2023-02-27T08:08:46.443Z,12.65
2023-02-27T08:11:12.876Z,13.23
2023-02-27T08:16:25.919Z,10.63
2023-02-27T08:18:52.790Z,11.10
2023-02-27T08:21:19.213Z,9.70
2023-02-27T08:23:45.583Z,7.75
2023-02-27T08:26:11.962Z,12.18
2023-02-27T08:28:38.375Z,11.68
2023-02-27T08:31:05.012Z,9.57
2023-02-27T08:33:31.487Z,8.55
2023-02-27T08:35:57.888Z,8.90
2023-02-27T08:38:26.311Z,8.50
2023-02-27T08:40:55.672Z,9.43
2023-02-27T08:43:22.643Z,9.63
2023-02-27T08:45:49.967Z,9.80
2023-02-27T08:48:17.696Z,9.82
2023-02-27T08:50:44.761Z,11.80
2023-02-27T08:53:11.734Z,8.90
2023-02-27T08:55:38.288Z,10.52
2023-02-27T08:58:04.860Z,6.05
2023-02-27T09:00:32.388Z,9.35
2023-02-27T09:02:59.942Z,10.68
2023-02-27T09:05:26.631Z,8.48
2023-02-27T09:07:53.040Z,9.07
2023-02-27T09:10:19.562Z,8.30
2023-02-27T09:12:46.012Z,9.65
2023-02-27T09:15:12.603Z,11.30
2023-02-27T09:17:39.052Z,8.30
2023-02-27T09:20:09.116Z,6.32
2023-02-27T09:22:35.528Z,8.90
2023-02-27T09:25:01.942Z,11.80
2023-02-27T09:27:28.488Z,8.32
2023-02-27T09:29:56.326Z,8.80
2023-02-27T09:32:23.469Z,7.93
2023-02-27T09:34:50.108Z,11.25
2023-02-27T09:37:17.212Z,10.20
2023-02-27T09:39:44.674Z,7.53
2023-02-27T09:42:17.123Z,6.20
2023-02-27T09:44:51.682Z,10.30
2023-02-27T09:47:23.860Z,6.32
2023-02-27T09:49:59.996Z,8.32
2023-02-27T09:52:27.994Z,7.82
2023-02-27T09:54:55.185Z,7.32
2023-02-27T09:57:30.709Z,7.97
2023-02-27T10:00:00.983Z,8.23
2023-02-27T10:02:49.400Z,5.90
2023-02-27T10:05:44.478Z,6.50
2023-02-27T10:08:22.454Z,9.75
2023-02-27T10:11:00.987Z,8.80
2023-02-27T10:13:42.779Z,6.05
2023-02-27T10:16:12.082Z,5.23
2023-02-27T10:18:57.959Z,6.75
2023-02-27T10:21:37.335Z,6.90
2023-02-27T10:24:15.656Z,5.05
2023-02-27T10:26:44.029Z,6.75
2023-02-27T10:29:21.184Z,6.55
2023-02-27T10:31:52.260Z,6.13
2023-02-27T10:34:18.774Z,4.75
2023-02-27T10:36:46.678Z,3.50
2023-02-27T10:39:16.608Z,7.53
2023-02-27T10:41:44.387Z,5.28
2023-02-27T10:44:14.909Z,6.13
2023-02-27T10:46:41.398Z,5.22
2023-02-27T10:49:19.484Z,8.27
2023-02-27T10:51:47.261Z,6.13
2023-02-27T10:54:25.090Z,4.50
2023-02-27T10:56:54.800Z,10.32
2023-02-27T10:59:32.788Z,5.47
2023-02-27T11:02:00.867Z,7.97
2023-02-27T11:04:38.665Z,5.35
2023-02-27T11:07:10.382Z,5.80
2023-02-27T11:09:37.281Z,9.05
2023-02-27T11:12:31.941Z,4.88
2023-02-27T11:15:16.446Z,7.93
2023-02-27T11:17:43.531Z,7.40
2023-02-27T11:20:50.470Z,5.22
2023-02-27T11:23:24.878Z,3.38
2023-02-27T11:25:51.760Z,6.65
2023-02-27T11:28:23.305Z,6.68
2023-02-27T11:31:01.743Z,6.03
2023-02-27T11:33:29.920Z,6.43
2023-02-27T11:35:58.549Z,8.70
2023-02-27T11:38:27.762Z,6.13
2023-02-27T11:40:56.667Z,5.10
2023-02-27T11:43:29.818Z,5.20
2023-02-27T11:46:25.504Z,8.60
2023-02-27T11:49:13.786Z,6.45
2023-02-27T11:51:47.412Z,9.32
2023-02-27T11:54:35.865Z,8.43
2023-02-27T11:57:09.034Z,6.88
2023-02-27T11:59:43.396Z,5.30
2023-02-27T12:02:24.216Z,5.10
2023-02-27T12:05:01.673Z,3.65
2023-02-27T12:07:35.449Z,5.28
2023-02-27T12:10:16.050Z,7.57
2023-02-27T12:12:45.364Z,6.82
2023-02-27T12:15:20.890Z,4.70
2023-02-27T12:17:52.493Z,4.95
2023-02-27T12:20:25.985Z,3.57
2023-02-27T12:22:53.826Z,3.95
2023-02-27T12:25:33.525Z,3.25
2023-02-27T12:28:16.961Z,5.00
2023-02-27T12:30:49.867Z,5.40
2023-02-27T12:33:27.979Z,3.70
2023-02-27T12:35:59.286Z,4.25
2023-02-27T12:38:25.726Z,4.25
2023-02-27T12:41:27.523Z,5.63
2023-02-27T12:44:31.670Z,5.97
2023-02-27T12:47:37.160Z,4.32
2023-02-27T12:50:10.331Z,5.47
2023-02-27T12:52:42.611Z,2.67
2023-02-27T12:55:15.851Z,5.15
2023-02-27T12:58:01.125Z,3.72
2023-02-27T13:00:30.242Z,4.82
2023-02-27T13:03:13.052Z,7.13
2023-02-27T13:05:43.222Z,4.57
2023-02-27T13:08:52.194Z,4.63
2023-02-27T13:11:49.638Z,5.70
2023-02-27T13:14:42.181Z,5.50
2023-02-27T13:17:39.269Z,5.57
2023-02-27T13:20:18.992Z,4.57
2023-02-27T13:22:58.861Z,3.35
2023-02-27T13:25:25.657Z,3.97
2023-02-27T13:28:00.202Z,5.53
2023-02-27T13:30:35.242Z,7.45
2023-02-27T13:33:13.243Z,3.15
2023-02-27T13:35:56.069Z,6.07
2023-02-27T13:38:43.473Z,6.25
2023-02-27T13:41:24.887Z,7.00
2023-02-27T13:43:58.816Z,5.40
2023-02-27T13:46:35.295Z,4.18
2023-02-27T13:49:04.780Z,5.32
2023-02-27T13:51:44.623Z,6.10
2023-02-27T13:54:13.963Z,5.05
2023-02-27T13:56:57.460Z,6.53
2023-02-27T13:59:32.205Z,4.97
2023-02-27T14:02:01.249Z,5.00
2023-02-27T14:04:30.237Z,3.17
2023-02-27T14:07:06.344Z,4.85
2023-02-27T14:09:38.068Z,5.50
2023-02-27T14:12:06.736Z,7.25
2023-02-27T14:14:36.341Z,6.03
2023-02-27T14:17:03.620Z,7.03
2023-02-27T14:19:32.862Z,5.40
2023-02-27T14:22:03.791Z,5.35
2023-02-27T14:24:44.807Z,4.15
2023-02-27T14:27:21.044Z,6.13
2023-02-27T14:29:48.743Z,4.45
2023-02-27T14:32:25.145Z,5.75
2023-02-27T14:34:53.648Z,5.60
2023-02-27T14:37:24.261Z,4.18
2023-02-27T14:39:53.220Z,6.43
2023-02-27T14:42:36.835Z,7.20
2023-02-27T14:45:03.746Z,5.65
2023-02-27T14:47:35.431Z,4.63
2023-02-27T14:50:02.674Z,5.68
2023-02-27T14:52:30.592Z,6.70
2023-02-27T14:55:22.931Z,5.20
2023-02-27T14:58:06.962Z,4.22
2023-02-27T15:00:42.369Z,4.97
2023-02-27T15:03:29.352Z,3.75
2023-02-27T15:06:01.003Z,5.40
2023-02-27T15:08:38.325Z,5.00
2023-02-27T15:11:05.093Z,5.35
2023-02-27T15:13:33.645Z,5.30
2023-02-27T15:16:20.023Z,4.50
2023-02-27T15:18:51.525Z,4.53
2023-02-27T15:21:20.304Z,5.70
2023-02-27T15:23:58.552Z,6.55
2023-02-27T15:26:25.939Z,5.03
2023-02-27T15:28:52.720Z,3.05
2023-02-27T15:31:22.287Z,4.53
2023-02-27T15:33:50.019Z,3.67
2023-02-27T15:36:28.511Z,6.82
2023-02-27T15:39:16.477Z,5.32
2023-02-27T15:42:04.134Z,5.32
2023-02-27T15:44:36.022Z,4.22
2023-02-27T15:47:02.634Z,7.95
2023-02-27T15:49:29.017Z,6.68
2023-02-27T15:52:03.212Z,4.88
2023-02-27T15:54:34.178Z,5.65
2023-02-27T15:57:02.821Z,4.68
2023-02-27T15:59:30.353Z,5.32
2023-02-27T16:01:56.877Z,5.32
2023-02-27T16:04:25.396Z,7.07
2023-02-27T16:06:59.233Z,4.93
2023-02-27T16:09:33.162Z,4.53
2023-02-27T16:12:23.440Z,5.00
2023-02-27T16:14:53.522Z,7.28
2023-02-27T16:17:23.196Z,8.32
2023-02-27T16:19:49.677Z,7.32
2023-02-27T16:22:18.612Z,7.38
2023-02-27T16:24:45.475Z,7.65
2023-02-27T16:27:23.356Z,5.82
2023-02-27T16:29:51.265Z,6.88
2023-02-27T16:32:26.758Z,6.53
2023-02-27T16:35:15.809Z,4.18
2023-02-27T16:41:29.931Z,3.45
2023-02-27T16:43:56.413Z,3.10
2023-02-27T16:46:23.625Z,4.40
2023-02-27T16:49:00.660Z,4.07
2023-02-27T16:55:17.885Z,2.90
2023-02-27T16:57:44.272Z,10.15
2023-02-27T17:00:12.542Z,4.50
2023-02-27T17:02:38.897Z,5.20
2023-02-27T17:05:06.054Z,4.97
2023-02-27T17:07:32.493Z,2.88
2023-02-27T17:10:00.218Z,6.13
2023-02-27T17:12:26.753Z,5.72
2023-02-27T17:14:53.283Z,4.20
2023-02-27T17:17:19.686Z,5.03
2023-02-27T17:19:46.299Z,6.40
2023-02-27T17:22:12.661Z,3.70
2023-02-27T17:24:39.188Z,5.63
2023-02-27T17:27:05.595Z,8.05
2023-02-27T17:29:32.067Z,8.10
2023-02-27T17:31:58.575Z,5.95
2023-02-27T17:34:25.134Z,6.20
2023-02-27T17:36:51.539Z,5.03
2023-02-27T17:39:18.015Z,5.78
2023-02-27T17:41:44.961Z,3.85
2023-02-27T17:44:12.102Z,5.15
2023-02-27T17:46:39.318Z,4.88
2023-02-27T17:49:05.881Z,6.13
2023-02-27T17:51:32.540Z,5.50
2023-02-27T17:54:04.378Z,4.70
2023-02-27T17:56:31.274Z,6.28
2023-02-27T17:58:57.876Z,5.45
2023-02-27T18:01:25.817Z,5.75
2023-02-27T18:03:54.203Z,5.47
2023-02-27T18:06:21.619Z,4.97
2023-02-27T18:08:48.326Z,8.10
2023-02-27T18:11:18.261Z,5.22
2023-02-27T18:13:45.166Z,7.78
2023-02-27T18:16:11.863Z,10.18
2023-02-27T18:18:39.437Z,9.20
2023-02-27T18:21:09.741Z,9.32
2023-02-27T18:23:36.796Z,11.45
2023-02-27T18:26:04.233Z,10.45
2023-02-27T18:28:30.685Z,9.50
2023-02-27T18:30:57.189Z,9.75
2023-02-27T18:33:24.168Z,10.93
2023-02-27T18:35:50.678Z,8.30
2023-02-27T18:38:17.108Z,9.38
2023-02-27T18:40:43.653Z,9.43
2023-02-27T18:43:10.992Z,11.98
2023-02-27T18:45:37.813Z,15.70
2023-02-27T18:48:04.313Z,15.73
2023-02-27T18:50:30.813Z,20.63
2023-02-27T18:52:58.595Z,21.15
2023-02-27T18:55:25.106Z,20.48
2023-02-27T18:57:51.515Z,21.77
2023-02-27T19:00:19.050Z,20.60
2023-02-27T19:02:45.632Z,18.73
2023-02-27T19:05:14.453Z,17.95
2023-02-27T19:07:40.966Z,14.32
2023-02-27T19:10:08.406Z,10.90
2023-02-27T19:12:34.845Z,14.18
2023-02-27T19:15:47.831Z,8.73
2023-02-27T19:18:45.181Z,10.02
2023-02-27T19:21:12.907Z,15.70
2023-02-27T19:23:55.088Z,23.77
2023-02-27T19:33:56.135Z,9.10
2023-02-27T19:36:24.828Z,9.15
2023-02-27T19:38:52.465Z,8.40
2023-02-27T19:41:19.589Z,9.13
2023-02-27T19:43:46.454Z,11.55
2023-02-27T19:46:18.648Z,10.65
2023-02-27T19:48:45.452Z,9.65
2023-02-27T19:51:14.959Z,10.23
2023-02-27T19:53:42.522Z,9.00
2023-02-27T19:56:12.083Z,10.15
2023-02-27T19:58:39.242Z,9.43
2023-02-27T20:01:05.688Z,11.85
2023-02-27T20:03:32.741Z,47.65
2023-02-27T20:05:59.786Z,29.67
2023-02-27T20:08:26.184Z,20.23
2023-02-27T20:11:03.506Z,14.50
2023-02-27T20:13:34.328Z,12.45
2023-02-27T20:16:03.956Z,12.90
2023-02-27T20:18:31.424Z,8.63
2023-02-27T20:21:17.806Z,10.45
2023-02-27T20:23:46.122Z,7.78
2023-02-27T20:26:14.537Z,7.07
2023-02-27T20:28:43.629Z,7.00
2023-02-27T20:31:10.761Z,15.25
2023-02-27T20:33:37.343Z,16.40
2023-02-27T20:36:07.359Z,13.88
2023-02-27T20:38:34.129Z,8.77
2023-02-27T20:41:00.975Z,8.32
2023-02-27T20:43:30.442Z,8.57
2023-02-27T20:45:56.866Z,6.45
2023-02-27T20:48:23.297Z,6.28
2023-02-27T20:50:49.666Z,4.97
2023-02-27T20:53:16.051Z,4.88
2023-02-27T20:55:49.207Z,6.15
2023-02-27T20:58:16.300Z,5.65
2023-02-27T21:00:42.973Z,14.25
2023-02-27T21:03:09.899Z,13.70
2023-02-27T21:05:36.318Z,11.65
2023-02-27T21:08:02.737Z,10.13
2023-02-27T21:10:29.114Z,8.38
2023-02-27T21:12:55.486Z,6.30
2023-02-27T21:15:21.864Z,6.70
2023-02-27T21:17:48.257Z,6.50
2023-02-27T21:20:14.738Z,6.40
2023-02-27T21:22:41.132Z,6.38
2023-02-27T21:25:07.886Z,6.97
2023-02-27T21:27:34.267Z,6.63
2023-02-27T21:30:00.656Z,6.82
2023-02-27T21:32:27.097Z,6.70
2023-02-27T21:34:53.512Z,9.00
2023-02-27T21:37:19.923Z,9.50
2023-02-27T21:39:50.393Z,9.27
2023-02-27T21:42:16.797Z,12.52
2023-02-27T21:44:43.728Z,16.80
2023-02-27T21:47:10.301Z,21.73
2023-02-27T21:49:37.138Z,28.00
2023-02-27T21:52:03.582Z,26.33
2023-02-27T21:54:30.002Z,22.27
2023-02-27T21:56:58.800Z,17.60
2023-02-27T21:59:25.873Z,18.17
2023-02-27T22:01:52.395Z,15.43
2023-02-27T22:04:20.273Z,11.30
2023-02-27T22:06:48.111Z,7.88
2023-02-27T22:09:16.987Z,8.57
2023-02-27T22:11:43.624Z,7.90
2023-02-27T22:14:11.017Z,7.90
2023-02-27T22:16:37.563Z,9.10
2023-02-27T22:19:14.161Z,7.07
2023-02-27T22:21:40.766Z,6.10
2023-02-27T22:24:07.695Z,8.23
2023-02-27T22:26:34.283Z,9.02
2023-02-27T22:29:00.970Z,6.88
2023-02-27T22:31:30.391Z,10.13
2023-02-27T22:34:01.031Z,11.85
2023-02-27T22:36:31.762Z,9.15
2023-02-27T22:38:58.351Z,10.75
2023-02-27T22:41:30.829Z,14.02
2023-02-27T22:43:58.783Z,11.20
2023-02-27T22:46:28.253Z,9.02
2023-02-27T22:49:06.663Z,11.63
2023-02-27T22:51:33.190Z,7.55
2023-02-27T22:54:01.689Z,11.60
2023-02-27T22:56:28.591Z,8.27
2023-02-27T22:58:55.268Z,12.10
2023-02-27T23:01:24.497Z,10.27
2023-02-27T23:03:52.930Z,10.23
2023-02-27T23:06:21.723Z,11.68
2023-02-27T23:08:48.782Z,11.27
2023-02-27T23:11:16.169Z,11.85
2023-02-27T23:13:42.658Z,10.90
2023-02-27T23:16:13.487Z,11.30
2023-02-27T23:18:50.836Z,9.75
2023-02-27T23:21:19.412Z,11.02
2023-02-27T23:23:45.993Z,10.00
2023-02-27T23:26:12.765Z,8.77
2023-02-27T23:28:39.412Z,9.95
2023-02-27T23:31:07.010Z,11.70
2023-02-27T23:33:33.798Z,11.68
2023-02-27T23:36:01.433Z,10.70
2023-02-27T23:38:28.470Z,10.13
2023-02-27T23:40:54.916Z,10.73
2023-02-27T23:43:40.865Z,12.90
2023-02-27T23:46:09.067Z,10.18
2023-02-27T23:48:35.578Z,12.55
2023-02-27T23:51:03.321Z,11.45
2023-02-27T23:53:30.404Z,10.13
2023-02-27T23:55:56.865Z,10.43
2023-02-27T23:58:23.510Z,9.73
